createdAt,value
2017-06-23T00:01:12.562Z,12.07
2017-06-23T00:03:41.705Z,14.50
2017-06-23T00:06:10.904Z,13.00
2017-06-23T00:08:40.063Z,13.30
2017-06-23T00:11:09.222Z,11.53
2017-06-23T00:13:38.401Z,13.77
2017-06-23T00:16:07.603Z,12.53
2017-06-23T00:18:36.755Z,15.80
2017-06-23T00:21:05.907Z,13.03
2017-06-23T00:23:35.058Z,11.47
2017-06-23T00:26:04.222Z,13.13
2017-06-23T00:28:33.366Z,13.93
2017-06-23T00:31:02.520Z,12.50
2017-06-23T00:33:31.654Z,18.30
2017-06-23T00:36:00.844Z,12.70
2017-06-23T00:38:29.985Z,11.50
2017-06-23T00:40:59.160Z,15.73
2017-06-23T00:43:28.301Z,15.23
2017-06-23T00:45:57.441Z,13.90
2017-06-23T00:48:26.607Z,14.53
2017-06-23T00:50:55.769Z,9.97
2017-06-23T00:53:24.911Z,15.10
2017-06-23T00:55:54.047Z,14.50
2017-06-23T00:58:23.214Z,11.57
2017-06-23T01:00:52.362Z,11.77
2017-06-23T01:03:21.505Z,14.63
2017-06-23T01:05:50.687Z,11.43
2017-06-23T01:08:19.830Z,14.77
2017-06-23T01:10:48.978Z,10.50
2017-06-23T01:13:18.433Z,14.97
2017-06-23T01:15:47.591Z,19.10
2017-06-23T01:18:16.739Z,13.57
2017-06-23T01:20:45.919Z,19.20
2017-06-23T01:23:15.062Z,10.20
2017-06-23T01:25:44.238Z,12.87
2017-06-23T01:28:13.382Z,10.07
2017-06-23T01:30:42.542Z,9.70
2017-06-23T01:33:11.690Z,15.80
2017-06-23T01:35:40.861Z,12.87
2017-06-23T01:38:10.016Z,13.20
2017-06-23T01:40:39.156Z,12.20
2017-06-23T01:43:08.336Z,14.97
2017-06-23T01:45:37.474Z,9.33
2017-06-23T01:48:06.631Z,13.60
2017-06-23T01:50:35.793Z,12.80
2017-06-23T01:53:04.948Z,16.27
2017-06-23T01:55:34.107Z,14.83
2017-06-23T01:58:03.273Z,14.17
2017-06-23T02:00:32.432Z,20.50
2017-06-23T02:03:01.575Z,14.90
2017-06-23T02:05:30.831Z,12.20
2017-06-23T02:07:59.966Z,10.47
2017-06-23T02:10:29.112Z,13.73
2017-06-23T02:12:58.282Z,15.20
2017-06-23T02:15:27.424Z,13.70
2017-06-23T02:17:56.838Z,12.27
2017-06-23T02:20:25.989Z,13.30
2017-06-23T02:22:55.144Z,16.47
2017-06-23T02:25:24.301Z,16.03
2017-06-23T02:27:53.451Z,12.27
2017-06-23T02:30:22.633Z,17.53
2017-06-23T02:32:51.785Z,11.93
2017-06-23T02:35:20.945Z,13.87
2017-06-23T02:37:50.107Z,12.40
2017-06-23T02:40:19.270Z,19.80
2017-06-23T02:42:48.410Z,15.03
2017-06-23T02:45:17.572Z,13.77
2017-06-23T02:47:46.723Z,13.10
2017-06-23T02:50:15.880Z,11.60
2017-06-23T02:52:45.018Z,13.63
2017-06-23T02:55:14.191Z,17.60
2017-06-23T02:57:43.333Z,11.60
2017-06-23T03:00:12.505Z,18.07
2017-06-23T03:02:41.650Z,16.30
2017-06-23T03:05:10.805Z,16.03
2017-06-23T03:07:39.965Z,15.47
2017-06-23T03:10:09.118Z,12.60
2017-06-23T03:12:38.266Z,15.73
2017-06-23T03:15:07.422Z,17.67
2017-06-23T03:17:36.580Z,16.53
2017-06-23T03:20:05.743Z,15.87
2017-06-23T03:22:34.899Z,13.67
2017-06-23T03:25:04.061Z,15.30
2017-06-23T03:27:33.219Z,15.43
2017-06-23T03:30:02.369Z,14.63
2017-06-23T03:32:31.523Z,16.03
2017-06-23T03:35:00.675Z,14.73
2017-06-23T03:37:29.835Z,16.83
2017-06-23T03:39:58.982Z,17.23
2017-06-23T03:42:28.139Z,21.93
2017-06-23T03:44:57.280Z,14.17
2017-06-23T03:47:26.430Z,13.90
2017-06-23T03:49:55.598Z,15.20
2017-06-23T03:52:24.758Z,14.27
2017-06-23T03:54:53.918Z,19.87
2017-06-23T03:57:23.070Z,14.40
2017-06-23T03:59:52.231Z,15.63
2017-06-23T04:02:21.395Z,15.40
2017-06-23T04:04:50.559Z,12.20
2017-06-23T04:07:19.719Z,16.33
2017-06-23T04:09:48.878Z,15.80
2017-06-23T04:12:18.150Z,16.00
2017-06-23T04:14:47.290Z,17.17
2017-06-23T04:17:16.454Z,15.07
2017-06-23T04:19:45.602Z,17.87
2017-06-23T04:22:14.758Z,15.87
2017-06-23T04:24:43.906Z,18.83
2017-06-23T04:27:13.062Z,16.90
2017-06-23T04:29:42.228Z,13.30
2017-06-23T04:32:11.367Z,14.00
2017-06-23T04:34:40.537Z,15.43
2017-06-23T04:37:09.691Z,14.20
2017-06-23T04:39:38.841Z,15.93
2017-06-23T04:42:07.999Z,15.80
2017-06-23T04:44:37.153Z,15.83
2017-06-23T04:47:06.319Z,17.60
2017-06-23T04:49:35.458Z,14.60
2017-06-23T04:52:04.614Z,14.73
2017-06-23T04:54:33.782Z,16.87
2017-06-23T04:57:02.926Z,13.40
2017-06-23T04:59:32.089Z,24.33
2017-06-23T05:02:01.242Z,15.57
2017-06-23T05:04:30.404Z,14.87
2017-06-23T05:06:59.869Z,13.37
2017-06-23T05:09:29.022Z,18.70
2017-06-23T05:11:58.167Z,13.10
2017-06-23T05:14:27.327Z,12.77
2017-06-23T05:16:56.503Z,17.73
2017-06-23T05:19:25.660Z,11.67
2017-06-23T05:21:54.818Z,12.47
2017-06-23T05:24:23.977Z,13.60
2017-06-23T05:26:53.122Z,15.60
2017-06-23T05:29:22.286Z,13.40
2017-06-23T05:31:51.434Z,15.60
2017-06-23T05:34:20.594Z,14.30
2017-06-23T05:36:49.768Z,13.23
2017-06-23T05:39:18.911Z,14.30
2017-06-23T05:41:48.059Z,14.83
2017-06-23T05:44:17.215Z,13.53
2017-06-23T05:46:46.369Z,12.40
2017-06-23T05:49:15.527Z,18.53
2017-06-23T05:51:44.717Z,11.67
2017-06-23T05:54:13.879Z,14.37
2017-06-23T05:56:43.047Z,16.87
2017-06-23T05:59:12.215Z,13.33
2017-06-23T06:01:41.378Z,13.23
2017-06-23T06:04:10.532Z,11.50
2017-06-23T06:06:39.712Z,13.80
2017-06-23T06:09:08.880Z,12.37
2017-06-23T06:11:38.029Z,10.80
2017-06-23T06:14:07.180Z,11.40
2017-06-23T06:16:36.320Z,11.90
2017-06-23T06:19:05.473Z,17.30
2017-06-23T06:21:34.657Z,13.80
2017-06-23T06:24:03.791Z,14.60
2017-06-23T06:26:32.959Z,16.97
2017-06-23T06:29:02.103Z,13.60
2017-06-23T06:31:31.269Z,10.43
2017-06-23T06:34:00.415Z,10.30
2017-06-23T06:36:30.234Z,13.87
2017-06-23T06:38:59.394Z,11.80
2017-06-23T06:41:28.545Z,18.57
2017-06-23T06:43:57.686Z,14.03
2017-06-23T06:46:26.835Z,10.40
2017-06-23T06:48:55.977Z,12.00
2017-06-23T06:51:25.175Z,10.70
2017-06-23T06:53:54.331Z,10.50
2017-06-23T06:56:23.487Z,10.80
2017-06-23T06:58:52.643Z,11.27
2017-06-23T07:01:21.809Z,10.10
2017-06-23T07:03:50.956Z,10.20
2017-06-23T07:06:20.913Z,8.73
2017-06-23T07:08:50.051Z,10.57
2017-06-23T07:11:19.198Z,9.80
2017-06-23T07:13:48.352Z,10.80
2017-06-23T07:16:17.516Z,9.07
2017-06-23T07:18:46.658Z,16.60
2017-06-23T07:21:15.827Z,12.33
2017-06-23T07:23:44.967Z,10.77
2017-06-23T07:26:14.108Z,9.10
2017-06-23T07:28:43.261Z,9.57
2017-06-23T07:31:12.419Z,12.43
2017-06-23T07:33:41.578Z,12.43
2017-06-23T07:36:10.745Z,12.73
2017-06-23T07:38:39.893Z,10.67
2017-06-23T07:41:09.050Z,11.23
2017-06-23T07:43:38.199Z,10.13
2017-06-23T07:46:07.346Z,10.50
2017-06-23T07:48:36.505Z,10.57
2017-06-23T07:51:05.719Z,17.43
2017-06-23T07:53:34.867Z,14.40
2017-06-23T07:56:04.025Z,14.67
2017-06-23T07:58:33.189Z,12.33
2017-06-23T08:01:02.363Z,11.27
2017-06-23T08:03:31.523Z,12.33
2017-06-23T08:06:00.695Z,9.77
2017-06-23T08:08:29.850Z,10.23
2017-06-23T08:10:59.001Z,10.20
2017-06-23T08:13:28.138Z,8.00
2017-06-23T08:15:57.294Z,10.23
2017-06-23T08:18:26.460Z,13.50
2017-06-23T08:20:55.598Z,8.40
2017-06-23T08:23:24.744Z,11.83
2017-06-23T08:25:53.901Z,11.03
2017-06-23T08:28:23.047Z,8.37
2017-06-23T08:30:52.196Z,10.23
2017-06-23T08:33:21.355Z,11.97
2017-06-23T08:35:50.497Z,6.00
2017-06-23T08:38:19.666Z,10.00
2017-06-23T08:40:48.818Z,7.57
2017-06-23T08:43:17.954Z,7.47
2017-06-23T08:45:47.098Z,6.17
2017-06-23T08:48:16.246Z,8.87
2017-06-23T08:50:45.416Z,8.00
2017-06-23T08:53:14.542Z,10.20
2017-06-23T08:55:43.688Z,5.70
2017-06-23T08:58:12.839Z,9.87
2017-06-23T09:00:41.980Z,6.77
2017-06-23T09:03:11.143Z,13.40
2017-06-23T09:05:40.313Z,14.30
2017-06-23T09:08:09.466Z,7.30
2017-06-23T09:10:38.592Z,7.73
2017-06-23T09:13:07.718Z,6.13
2017-06-23T09:15:36.890Z,7.23
2017-06-23T09:18:06.039Z,7.10
2017-06-23T09:20:35.212Z,8.33
2017-06-23T09:23:04.344Z,6.40
2017-06-23T09:25:33.493Z,7.73
2017-06-23T09:28:02.652Z,5.97
2017-06-23T09:30:31.804Z,9.30
2017-06-23T09:33:00.947Z,5.90
2017-06-23T09:35:30.113Z,6.50
2017-06-23T09:37:59.251Z,9.27
2017-06-23T09:40:28.382Z,6.00
2017-06-23T09:42:57.523Z,6.30
2017-06-23T09:45:26.670Z,6.57
2017-06-23T09:47:55.831Z,5.87
2017-06-23T09:50:24.998Z,6.63
2017-06-23T09:52:54.157Z,8.10
2017-06-23T09:55:23.276Z,5.70
2017-06-23T09:57:52.425Z,10.63
2017-06-23T10:00:21.569Z,6.13
2017-06-23T10:02:50.701Z,5.87
2017-06-23T10:05:19.871Z,6.43
2017-06-23T10:07:49.021Z,6.43
2017-06-23T10:10:18.161Z,5.93
2017-06-23T10:12:47.295Z,8.37
2017-06-23T10:15:16.455Z,6.87
2017-06-23T10:17:45.586Z,9.10
2017-06-23T10:20:14.731Z,6.57
2017-06-23T10:22:43.890Z,5.73
2017-06-23T10:25:13.070Z,7.23
2017-06-23T10:27:42.210Z,6.07
2017-06-23T10:30:11.342Z,6.27
2017-06-23T10:32:40.499Z,6.50
2017-06-23T10:35:09.639Z,6.50
2017-06-23T10:37:38.812Z,6.13
2017-06-23T10:40:07.941Z,7.37
2017-06-23T10:42:37.139Z,7.70
2017-06-23T10:45:06.317Z,6.63
2017-06-23T10:47:35.451Z,5.83
2017-06-23T10:50:04.590Z,5.60
2017-06-23T10:52:33.756Z,7.03
2017-06-23T10:55:02.896Z,6.70
2017-06-23T10:57:32.034Z,5.90
2017-06-23T11:00:01.182Z,7.03
2017-06-23T11:02:30.329Z,6.97
2017-06-23T11:04:59.473Z,6.40
2017-06-23T11:07:28.627Z,9.07
2017-06-23T11:09:57.800Z,6.73
2017-06-23T11:12:26.935Z,11.07
2017-06-23T11:14:56.080Z,6.27
2017-06-23T11:17:25.235Z,7.00
2017-06-23T11:19:54.385Z,6.90
2017-06-23T11:22:23.532Z,9.47
2017-06-23T11:24:52.694Z,6.43
2017-06-23T11:27:21.846Z,6.20
2017-06-23T11:29:50.978Z,7.03
2017-06-23T11:32:20.126Z,7.17
2017-06-23T11:34:49.275Z,9.30
2017-06-23T11:37:18.450Z,6.20
2017-06-23T11:39:47.595Z,6.03
2017-06-23T11:42:16.735Z,10.17
2017-06-23T11:44:45.903Z,6.80
2017-06-23T11:47:15.029Z,8.90
2017-06-23T11:49:44.183Z,6.23
2017-06-23T11:52:13.331Z,6.23
2017-06-23T11:54:42.476Z,6.90
2017-06-23T11:57:11.635Z,6.90
2017-06-23T11:59:40.778Z,7.53
2017-06-23T12:02:09.930Z,6.40
2017-06-23T12:04:39.086Z,6.73
2017-06-23T12:07:08.254Z,7.17
2017-06-23T12:09:37.397Z,8.23
2017-06-23T12:12:06.530Z,6.20
2017-06-23T12:14:35.681Z,6.23
2017-06-23T12:17:04.824Z,8.30
2017-06-23T12:19:34.311Z,6.20
2017-06-23T12:22:03.459Z,10.57
2017-06-23T12:24:32.595Z,6.23
2017-06-23T12:27:01.763Z,5.27
2017-06-23T12:29:30.904Z,7.57
2017-06-23T12:32:00.058Z,9.90
2017-06-23T12:34:29.217Z,6.87
2017-06-23T12:36:58.394Z,5.70
2017-06-23T12:39:27.529Z,9.77
2017-06-23T12:41:56.668Z,5.77
2017-06-23T12:44:25.819Z,11.47
2017-06-23T12:46:54.949Z,6.57
2017-06-23T12:49:24.117Z,11.90
2017-06-23T12:51:53.259Z,6.97
2017-06-23T12:54:22.443Z,7.60
2017-06-23T12:56:51.571Z,5.87
2017-06-23T12:59:20.705Z,6.20
2017-06-23T13:01:49.851Z,7.70
2017-06-23T13:04:19.005Z,6.67
2017-06-23T13:06:48.160Z,7.87
2017-06-23T13:09:17.320Z,7.83
2017-06-23T13:11:46.456Z,8.70
2017-06-23T13:14:15.607Z,6.23
2017-06-23T13:16:44.747Z,12.50
2017-06-23T13:19:13.901Z,16.43
2017-06-23T13:21:43.067Z,9.10
2017-06-23T13:24:12.219Z,8.67
2017-06-23T13:26:41.351Z,5.40
2017-06-23T13:29:10.507Z,8.40
2017-06-23T13:31:39.650Z,6.43
2017-06-23T13:34:08.803Z,6.17
2017-06-23T13:36:37.959Z,6.47
2017-06-23T13:39:07.086Z,9.80
2017-06-23T13:41:36.236Z,7.30
2017-06-23T13:44:05.382Z,7.03
2017-06-23T13:46:34.518Z,6.90
2017-06-23T13:49:03.680Z,10.37
2017-06-23T13:51:32.832Z,6.67
2017-06-23T13:54:01.982Z,6.20
2017-06-23T13:56:31.125Z,6.77
2017-06-23T13:59:00.263Z,5.93
2017-06-23T14:01:29.432Z,6.27
2017-06-23T14:03:58.571Z,6.43
2017-06-23T14:06:27.723Z,5.63
2017-06-23T14:08:56.874Z,7.23
2017-06-23T14:11:26.016Z,7.00
2017-06-23T14:13:55.158Z,5.37
2017-06-23T14:16:24.314Z,6.37
2017-06-23T14:18:53.446Z,5.57
2017-06-23T14:21:22.616Z,6.57
2017-06-23T14:23:51.780Z,6.80
2017-06-23T14:26:20.910Z,7.43
2017-06-23T14:28:50.072Z,8.10
2017-06-23T14:31:19.201Z,6.80
2017-06-23T14:33:48.355Z,7.77
2017-06-23T14:36:17.506Z,8.70
2017-06-23T14:38:46.640Z,7.67
2017-06-23T14:41:15.791Z,8.33
2017-06-23T14:43:44.932Z,5.43
2017-06-23T14:46:14.067Z,6.13
2017-06-23T14:48:43.225Z,8.23
2017-06-23T14:51:12.404Z,15.30
2017-06-23T14:53:41.550Z,6.77
2017-06-23T14:56:10.698Z,7.50
2017-06-23T14:58:39.845Z,6.63
2017-06-23T15:01:08.996Z,7.73
2017-06-23T15:03:38.131Z,6.30
2017-06-23T15:06:07.301Z,12.70
2017-06-23T15:08:36.451Z,7.70
2017-06-23T15:11:05.586Z,6.33
2017-06-23T15:13:34.746Z,8.83
2017-06-23T15:16:03.901Z,6.43
2017-06-23T15:18:33.078Z,6.37
2017-06-23T15:21:02.228Z,8.10
2017-06-23T15:23:31.368Z,9.53
2017-06-23T15:26:00.512Z,6.47
2017-06-23T15:28:29.656Z,6.20
2017-06-23T15:30:58.803Z,6.93
2017-06-23T15:33:27.941Z,6.80
2017-06-23T15:35:57.127Z,7.10
2017-06-23T15:38:26.269Z,6.67
2017-06-23T15:40:55.404Z,6.07
2017-06-23T15:43:24.563Z,6.80
2017-06-23T15:45:53.704Z,7.60
2017-06-23T15:48:22.858Z,5.60
2017-06-23T15:50:52.034Z,6.90
2017-06-23T15:53:21.178Z,5.57
2017-06-23T15:55:50.359Z,6.33
2017-06-23T15:58:19.490Z,6.27
2017-06-23T16:00:48.638Z,7.60
2017-06-23T16:03:17.801Z,5.77
2017-06-23T16:05:46.947Z,5.20
2017-06-23T16:08:16.101Z,5.50
2017-06-23T16:10:45.239Z,9.73
2017-06-23T16:13:14.387Z,6.77
2017-06-23T16:15:43.538Z,5.23
2017-06-23T16:18:12.671Z,6.30
2017-06-23T16:20:41.825Z,5.53
2017-06-23T16:23:10.983Z,5.90
2017-06-23T16:25:40.109Z,5.03
2017-06-23T16:28:09.304Z,5.90
2017-06-23T16:30:38.464Z,8.33
2017-06-23T16:33:07.607Z,8.93
2017-06-23T16:35:36.755Z,7.73
2017-06-23T16:38:05.912Z,5.80
2017-06-23T16:40:36.163Z,5.40
2017-06-23T16:43:05.312Z,5.60
2017-06-23T16:45:34.459Z,4.97
2017-06-23T16:48:03.590Z,4.83
2017-06-23T16:50:32.795Z,10.70
2017-06-23T16:53:01.945Z,8.97
2017-06-23T16:55:31.115Z,8.60
2017-06-23T16:58:00.264Z,5.37
2017-06-23T17:00:29.409Z,8.00
2017-06-23T17:02:58.562Z,6.97
2017-06-23T17:05:27.719Z,6.67
2017-06-23T17:07:56.879Z,5.20
2017-06-23T17:10:26.032Z,7.43
2017-06-23T17:12:55.197Z,6.50
2017-06-23T17:15:24.398Z,4.90
2017-06-23T17:17:53.531Z,5.07
2017-06-23T17:20:22.683Z,5.30
2017-06-23T17:22:51.841Z,5.33
2017-06-23T17:25:21.002Z,5.10
2017-06-23T17:27:50.147Z,5.30
2017-06-23T17:30:19.306Z,7.20
2017-06-23T17:32:48.458Z,4.87
2017-06-23T17:35:17.621Z,5.63
2017-06-23T17:37:46.771Z,5.80
2017-06-23T17:40:15.928Z,6.40
2017-06-23T17:42:45.072Z,7.60
2017-06-23T17:45:14.206Z,6.10
2017-06-23T17:47:43.355Z,9.10
2017-06-23T17:50:12.493Z,5.67
2017-06-23T17:52:41.635Z,7.73
2017-06-23T17:55:10.812Z,5.13
2017-06-23T17:57:39.943Z,5.93
2017-06-23T18:00:09.091Z,5.33
2017-06-23T18:02:38.235Z,5.13
2017-06-23T18:05:07.386Z,6.03
2017-06-23T18:07:36.528Z,8.13
2017-06-23T18:10:05.681Z,5.30
2017-06-23T18:12:34.823Z,5.80
2017-06-23T18:15:03.997Z,5.57
2017-06-23T18:17:33.136Z,6.10
2017-06-23T18:20:02.267Z,4.97
2017-06-23T18:22:31.452Z,5.20
2017-06-23T18:25:00.614Z,5.30
2017-06-23T18:27:29.739Z,5.70
2017-06-23T18:29:58.935Z,5.27
2017-06-23T18:32:28.091Z,4.90
2017-06-23T18:34:57.242Z,4.70
2017-06-23T18:37:26.384Z,4.20
2017-06-23T18:39:55.530Z,5.17
2017-06-23T18:42:24.697Z,13.13
2017-06-23T18:44:53.832Z,6.73
2017-06-23T18:47:22.985Z,4.73
2017-06-23T18:49:52.137Z,5.20
2017-06-23T18:52:21.308Z,6.30
2017-06-23T18:54:50.463Z,4.90
2017-06-23T18:57:19.619Z,5.47
2017-06-23T18:59:48.759Z,7.50
2017-06-23T19:02:17.917Z,5.43
2017-06-23T19:04:47.051Z,5.03
2017-06-23T19:07:16.185Z,4.73
2017-06-23T19:09:45.347Z,7.93
2017-06-23T19:12:15.132Z,6.97
2017-06-23T19:14:44.256Z,5.60
2017-06-23T19:17:13.400Z,5.30
2017-06-23T19:19:42.570Z,5.90
2017-06-23T19:22:11.727Z,4.67
2017-06-23T19:24:40.914Z,5.20
2017-06-23T19:27:10.068Z,4.50
2017-06-23T19:29:39.226Z,4.67
2017-06-23T19:32:08.367Z,6.30
2017-06-23T19:34:37.507Z,7.17
2017-06-23T19:37:06.675Z,6.27
2017-06-23T19:39:35.831Z,5.20
2017-06-23T19:42:04.978Z,4.80
2017-06-23T19:44:34.132Z,4.90
2017-06-23T19:47:03.276Z,5.80
2017-06-23T19:49:32.456Z,7.40
2017-06-23T19:52:01.592Z,4.77
2017-06-23T19:54:30.752Z,6.37
2017-06-23T19:56:59.939Z,5.43
2017-06-23T19:59:29.067Z,5.10
2017-06-23T20:01:58.215Z,5.73
2017-06-23T20:04:27.373Z,4.47
2017-06-23T20:06:56.525Z,4.87
2017-06-23T20:09:25.670Z,4.40
2017-06-23T20:11:54.823Z,7.23
2017-06-23T20:14:23.984Z,5.33
2017-06-23T20:16:53.143Z,5.10
2017-06-23T20:19:22.296Z,4.87
2017-06-23T20:21:51.438Z,5.23
2017-06-23T20:24:20.594Z,6.03
2017-06-23T20:26:49.752Z,5.67
2017-06-23T20:29:18.889Z,5.40
2017-06-23T20:31:48.043Z,5.23
2017-06-23T20:34:17.187Z,8.10
2017-06-23T20:36:46.361Z,5.80
2017-06-23T20:39:15.521Z,4.67
2017-06-23T20:41:44.685Z,4.93
2017-06-23T20:44:13.852Z,4.77
2017-06-23T20:46:42.986Z,5.30
2017-06-23T20:49:12.142Z,5.07
2017-06-23T20:51:41.292Z,5.50
2017-06-23T20:54:10.436Z,4.90
2017-06-23T20:56:39.589Z,5.30
2017-06-23T20:59:08.752Z,5.60
2017-06-23T21:01:37.906Z,6.57
2017-06-23T21:04:07.063Z,5.73
2017-06-23T21:06:36.239Z,5.43
2017-06-23T21:09:05.379Z,5.23
2017-06-23T21:11:34.531Z,6.07
2017-06-23T21:14:03.693Z,4.87
2017-06-23T21:16:32.850Z,5.50
2017-06-23T21:19:02.022Z,7.07
2017-06-23T21:21:31.163Z,5.37
2017-06-23T21:24:00.306Z,4.73
2017-06-23T21:26:29.470Z,5.37
2017-06-23T21:28:58.632Z,5.80
2017-06-23T21:31:27.790Z,7.07
2017-06-23T21:33:56.935Z,6.37
2017-06-23T21:36:26.108Z,7.97
2017-06-23T21:38:55.298Z,5.20
2017-06-23T21:41:30.316Z,5.70
2017-06-23T21:43:59.470Z,5.70
2017-06-23T21:46:28.633Z,8.60
2017-06-23T21:48:57.799Z,12.23
2017-06-23T21:51:26.963Z,5.27
2017-06-23T21:53:56.113Z,5.23
2017-06-23T21:56:25.273Z,6.23
2017-06-23T21:58:54.439Z,6.87
2017-06-23T22:01:23.583Z,9.17
2017-06-23T22:03:52.733Z,5.47
2017-06-23T22:06:21.889Z,5.33
2017-06-23T22:08:51.034Z,5.87
2017-06-23T22:11:20.202Z,5.00
2017-06-23T22:13:49.349Z,6.83
2017-06-23T22:16:18.500Z,5.50
2017-06-23T22:18:47.651Z,5.07
2017-06-23T22:21:16.806Z,5.97
2017-06-23T22:23:45.982Z,7.73
2017-06-23T22:26:15.152Z,5.57
2017-06-23T22:28:44.275Z,4.70
2017-06-23T22:31:13.435Z,6.70
2017-06-23T22:33:42.580Z,5.70
2017-06-23T22:36:11.732Z,4.60
2017-06-23T22:38:40.891Z,4.90
2017-06-23T22:41:10.050Z,4.70
2017-06-23T22:43:39.187Z,4.70
2017-06-23T22:46:08.342Z,5.00
2017-06-23T22:48:37.486Z,6.00
2017-06-23T22:51:06.655Z,5.33
2017-06-23T22:53:35.825Z,4.73
2017-06-23T22:56:04.961Z,4.37
2017-06-23T22:58:34.101Z,5.03
2017-06-23T23:01:03.265Z,3.87
2017-06-23T23:03:32.415Z,6.33
2017-06-23T23:06:01.601Z,4.37
2017-06-23T23:08:30.753Z,4.93
2017-06-23T23:10:59.883Z,6.77
2017-06-23T23:13:29.037Z,5.30
2017-06-23T23:15:58.178Z,5.00
2017-06-23T23:18:27.334Z,6.40
2017-06-23T23:20:56.493Z,6.87
2017-06-23T23:23:25.639Z,4.50
2017-06-23T23:25:54.810Z,5.00
2017-06-23T23:28:23.947Z,5.10
2017-06-23T23:30:53.113Z,6.30
2017-06-23T23:33:22.258Z,4.73
2017-06-23T23:35:51.465Z,6.03
2017-06-23T23:38:20.611Z,4.63
2017-06-23T23:40:49.778Z,4.10
2017-06-23T23:43:18.938Z,5.60
2017-06-23T23:45:48.083Z,3.80
2017-06-23T23:48:17.210Z,4.73
2017-06-23T23:50:46.386Z,3.83
2017-06-23T23:53:15.522Z,4.63
2017-06-23T23:55:44.662Z,3.60
2017-06-23T23:58:13.836Z,3.80
